createdAt,value
2023-07-05T00:00:24.620Z,46.38
2023-07-05T00:02:53.151Z,46.55
2023-07-05T00:05:21.644Z,46.70
2023-07-05T00:07:50.178Z,46.67
2023-07-05T00:10:18.751Z,46.62
2023-07-05T00:12:47.423Z,46.62
2023-07-05T00:15:17.259Z,46.47
2023-07-05T00:17:45.626Z,46.56
2023-07-05T00:20:15.270Z,46.59
2023-07-05T00:22:43.606Z,46.50
2023-07-05T00:25:12.289Z,46.54
2023-07-05T00:27:40.621Z,46.42
2023-07-05T00:30:09.852Z,46.41
2023-07-05T00:32:39.699Z,46.48
2023-07-05T00:35:08.921Z,46.52
2023-07-05T00:37:38.592Z,46.63
2023-07-05T00:40:08.296Z,46.79
2023-07-05T00:42:36.622Z,46.84
2023-07-05T00:46:02.265Z,46.61
2023-07-05T00:48:36.882Z,46.61
2023-07-05T00:51:20.572Z,47.10
2023-07-05T00:53:49.836Z,47.21
2023-07-05T00:56:29.194Z,47.06
2023-07-05T00:59:00.027Z,47.19
2023-07-05T01:01:29.334Z,47.35
2023-07-05T01:04:01.532Z,47.42
2023-07-05T01:06:29.910Z,48.30
2023-07-05T01:08:58.944Z,48.67
2023-07-05T01:11:34.548Z,48.70
2023-07-05T01:14:09.728Z,49.16
2023-07-05T01:16:52.647Z,49.53
2023-07-05T01:19:54.261Z,49.67
2023-07-05T01:22:40.496Z,49.89
2023-07-05T01:25:36.950Z,50.07
2023-07-05T01:28:22.226Z,50.33
2023-07-05T01:31:16.087Z,50.55
2023-07-05T01:33:52.336Z,50.96
2023-07-05T01:36:21.910Z,51.47
2023-07-05T01:38:50.228Z,51.57
2023-07-05T01:41:18.565Z,51.63
2023-07-05T01:43:47.910Z,51.75
2023-07-05T01:46:26.239Z,51.28
2023-07-05T01:49:27.301Z,51.44
2023-07-05T01:52:00.739Z,51.72
2023-07-05T01:54:37.738Z,51.66
2023-07-05T01:57:12.594Z,51.90
2023-07-05T01:59:48.005Z,51.82
2023-07-05T02:02:17.735Z,52.16
2023-07-05T02:04:49.012Z,52.53
2023-07-05T02:07:17.419Z,52.63
2023-07-05T02:09:46.187Z,52.75
2023-07-05T02:12:14.628Z,53.25
2023-07-05T02:14:43.028Z,53.44
2023-07-05T02:17:11.375Z,53.54
2023-07-05T02:19:39.739Z,53.78
2023-07-05T02:22:09.662Z,53.89
2023-07-05T02:24:38.023Z,54.08
2023-07-05T02:27:08.126Z,54.47
2023-07-05T02:29:37.334Z,54.64
2023-07-05T02:32:05.941Z,54.86
2023-07-05T02:34:34.285Z,54.82
2023-07-05T02:37:02.618Z,54.81
2023-07-05T02:39:32.430Z,54.83
2023-07-05T02:42:00.841Z,55.45
2023-07-05T02:44:29.217Z,55.50
2023-07-05T02:46:57.590Z,55.52
2023-07-05T02:49:25.961Z,55.61
2023-07-05T02:51:54.644Z,55.68
2023-07-05T02:54:23.430Z,55.91
2023-07-05T02:56:53.201Z,56.36
2023-07-05T02:59:21.577Z,56.41
2023-07-05T03:01:49.997Z,56.36
2023-07-05T03:04:18.420Z,56.40
2023-07-05T03:06:46.755Z,56.34
2023-07-05T03:09:15.495Z,56.33
2023-07-05T03:11:43.808Z,56.39
2023-07-05T03:14:13.544Z,56.38
2023-07-05T03:16:44.848Z,56.73
2023-07-05T03:19:13.674Z,57.21
2023-07-05T03:21:43.873Z,56.94
2023-07-05T03:24:12.263Z,56.98
2023-07-05T03:26:40.752Z,57.05
2023-07-05T03:29:09.050Z,57.12
2023-07-05T03:31:38.969Z,57.24
2023-07-05T03:34:07.994Z,57.71
2023-07-05T03:36:36.405Z,57.61
2023-07-05T03:39:04.847Z,57.70
2023-07-05T03:41:33.173Z,58.13
2023-07-05T03:44:03.121Z,57.81
2023-07-05T03:46:31.580Z,58.03
2023-07-05T03:49:01.411Z,58.18
2023-07-05T03:51:29.814Z,58.32
2023-07-05T03:54:00.044Z,58.71
2023-07-05T03:56:29.745Z,59.10
2023-07-05T03:58:58.630Z,59.31
2023-07-05T04:01:28.410Z,60.38
2023-07-05T04:03:58.380Z,60.50
2023-07-05T04:06:30.123Z,59.86
2023-07-05T04:08:58.755Z,60.80
2023-07-05T04:11:27.162Z,60.19
2023-07-05T04:13:57.370Z,60.41
2023-07-05T04:16:28.020Z,60.67
2023-07-05T04:18:58.029Z,60.56
2023-07-05T04:21:28.853Z,60.40
2023-07-05T04:23:57.273Z,60.28
2023-07-05T04:26:27.127Z,60.38
2023-07-05T04:28:55.968Z,60.63
2023-07-05T04:31:28.620Z,60.64
2023-07-05T04:33:57.725Z,61.16
2023-07-05T04:36:29.069Z,61.97
2023-07-05T04:38:59.407Z,61.54
2023-07-05T04:41:28.055Z,61.96
2023-07-05T04:43:56.466Z,61.05
2023-07-05T04:46:25.455Z,60.80
2023-07-05T04:48:54.296Z,61.90
2023-07-05T04:51:22.708Z,61.25
2023-07-05T04:53:52.439Z,60.83
2023-07-05T04:56:20.828Z,61.15
2023-07-05T04:58:50.769Z,61.63
2023-07-05T05:01:20.733Z,61.71
2023-07-05T05:03:49.257Z,62.12
2023-07-05T05:06:17.610Z,61.96
2023-07-05T05:08:46.092Z,61.60
2023-07-05T05:11:15.941Z,60.75
2023-07-05T05:13:44.320Z,60.26
2023-07-05T05:16:12.811Z,60.54
2023-07-05T05:18:41.530Z,60.92
2023-07-05T05:21:09.861Z,60.86
2023-07-05T05:23:38.665Z,61.22
2023-07-05T05:26:07.270Z,60.84
2023-07-05T05:28:37.540Z,60.75
2023-07-05T05:31:07.732Z,60.79
2023-07-05T05:33:36.554Z,60.40
2023-07-05T05:36:05.447Z,60.06
2023-07-05T05:38:33.905Z,59.86
2023-07-05T05:41:03.645Z,59.71
2023-07-05T05:43:32.361Z,59.63
2023-07-05T05:46:02.699Z,59.93
2023-07-05T05:48:31.228Z,59.85
2023-07-05T05:50:59.586Z,58.78
2023-07-05T05:53:27.887Z,56.31
2023-07-05T05:55:58.612Z,53.75
2023-07-05T05:58:27.492Z,53.84
2023-07-05T06:00:56.141Z,55.04
2023-07-05T06:03:26.143Z,54.92
2023-07-05T06:05:56.237Z,54.87
2023-07-05T06:08:24.677Z,54.10
2023-07-05T06:10:57.443Z,53.81
2023-07-05T06:13:26.934Z,54.36
2023-07-05T06:16:12.892Z,53.71
2023-07-05T06:18:44.997Z,53.17
2023-07-05T06:21:13.932Z,52.98
2023-07-05T06:23:42.356Z,52.64
2023-07-05T06:26:11.581Z,52.93
2023-07-05T06:28:40.562Z,52.94
2023-07-05T06:31:11.327Z,53.07
2023-07-05T06:33:40.371Z,52.56
2023-07-05T06:36:10.780Z,52.75
2023-07-05T06:38:39.630Z,52.48
2023-07-05T06:41:07.980Z,51.43
2023-07-05T06:43:36.347Z,51.25
2023-07-05T06:46:04.762Z,51.67
2023-07-05T06:48:33.139Z,50.36
2023-07-05T06:51:01.546Z,49.73
2023-07-05T06:56:02.746Z,49.76
2023-07-05T06:58:31.080Z,49.44
2023-07-05T07:01:02.752Z,48.50
2023-07-05T07:03:31.475Z,48.39
2023-07-05T07:06:00.740Z,48.13
2023-07-05T07:08:35.152Z,48.05
2023-07-05T07:11:04.481Z,48.79
2023-07-05T07:13:37.443Z,48.66
2023-07-05T07:16:08.544Z,48.38
2023-07-05T07:18:38.908Z,48.13
2023-07-05T07:21:08.458Z,47.42
2023-07-05T07:23:38.653Z,47.09
2023-07-05T07:26:08.916Z,47.51
2023-07-05T07:28:38.093Z,47.05
2023-07-05T07:31:13.567Z,46.72
2023-07-05T07:33:42.153Z,46.31
2023-07-05T07:36:11.672Z,44.80
2023-07-05T07:38:42.028Z,43.82
2023-07-05T07:41:18.049Z,43.81
2023-07-05T07:43:47.060Z,43.94
2023-07-05T07:46:16.787Z,43.20
2023-07-05T07:48:47.856Z,43.12
2023-07-05T07:51:31.427Z,43.68
2023-07-05T07:54:07.101Z,43.20
2023-07-05T07:56:35.559Z,42.93
2023-07-05T07:59:07.869Z,43.67
2023-07-05T08:01:39.086Z,43.13
2023-07-05T08:04:09.263Z,43.42
2023-07-05T08:06:40.278Z,43.55
2023-07-05T08:09:12.455Z,44.00
2023-07-05T08:11:41.122Z,44.13
2023-07-05T08:14:10.071Z,43.73
2023-07-05T08:16:38.492Z,43.63
2023-07-05T08:19:06.662Z,44.06
2023-07-05T08:21:34.969Z,44.31
2023-07-05T08:24:16.363Z,43.58
2023-07-05T08:26:53.106Z,43.02
2023-07-05T08:29:21.792Z,42.08
2023-07-05T08:31:51.234Z,42.13
2023-07-05T08:34:20.277Z,41.56
2023-07-05T08:36:48.658Z,43.39
2023-07-05T08:39:16.890Z,43.51
2023-07-05T08:42:04.574Z,43.51
2023-07-05T08:44:46.503Z,43.77
2023-07-05T08:47:23.841Z,44.06
2023-07-05T08:50:06.213Z,48.52
2023-07-05T08:52:43.863Z,48.85
2023-07-05T08:55:16.052Z,49.98
2023-07-05T08:57:49.230Z,50.56
2023-07-05T09:00:22.052Z,49.56
2023-07-05T09:02:50.201Z,49.83
2023-07-05T09:05:23.971Z,48.90
2023-07-05T09:08:02.574Z,48.53
2023-07-05T09:10:39.007Z,48.52
2023-07-05T09:13:17.419Z,49.28
2023-07-05T09:15:50.550Z,49.90
2023-07-05T09:18:28.883Z,49.66
2023-07-05T09:21:12.465Z,49.75
2023-07-05T09:23:44.857Z,51.19
2023-07-05T09:26:17.711Z,50.69
2023-07-05T09:28:52.217Z,50.36
2023-07-05T09:31:28.546Z,51.19
2023-07-05T09:34:09.789Z,50.41
2023-07-05T09:36:38.786Z,50.38
2023-07-05T09:39:18.333Z,49.89
2023-07-05T09:41:50.639Z,50.01
2023-07-05T09:44:21.513Z,49.90
2023-07-05T09:46:50.400Z,49.22
2023-07-05T09:49:19.647Z,49.41
2023-07-05T09:51:47.787Z,50.07
2023-07-05T09:54:22.715Z,50.26
2023-07-05T09:56:59.149Z,51.47
2023-07-05T09:59:28.592Z,52.27
2023-07-05T10:02:01.653Z,52.61
2023-07-05T10:04:30.696Z,53.76
2023-07-05T10:07:04.078Z,54.30
2023-07-05T10:09:32.255Z,55.35
2023-07-05T10:12:13.509Z,57.08
2023-07-05T10:14:42.957Z,56.90
2023-07-05T10:17:12.587Z,57.36
2023-07-05T10:19:50.154Z,57.28
2023-07-05T10:22:23.694Z,57.75
2023-07-05T10:24:54.428Z,57.61
2023-07-05T10:27:28.519Z,58.68
2023-07-05T10:30:03.865Z,58.32
2023-07-05T10:32:32.571Z,58.05
2023-07-05T10:35:01.692Z,58.10
2023-07-05T10:37:34.045Z,57.99
2023-07-05T10:40:09.633Z,57.55
2023-07-05T10:42:38.852Z,56.68
2023-07-05T10:45:14.647Z,56.39
2023-07-05T10:47:43.849Z,56.68
2023-07-05T10:50:16.124Z,56.08
2023-07-05T10:52:52.785Z,56.05
2023-07-05T10:55:24.239Z,55.97
2023-07-05T10:57:57.454Z,55.63
2023-07-05T11:00:38.905Z,56.08
2023-07-05T11:03:12.759Z,55.42
2023-07-05T11:05:44.764Z,55.68
2023-07-05T11:08:19.016Z,55.74
2023-07-05T11:10:48.566Z,55.63
2023-07-05T11:13:17.738Z,55.05
2023-07-05T11:15:48.474Z,55.39
2023-07-05T11:18:19.073Z,55.00
2023-07-05T11:20:52.856Z,55.07
2023-07-05T11:24:07.309Z,54.87
2023-07-05T11:26:45.993Z,54.33
2023-07-05T11:29:48.797Z,54.14
2023-07-05T11:32:18.319Z,54.39
2023-07-05T11:34:52.220Z,53.66
2023-07-05T11:37:43.310Z,53.13
2023-07-05T11:40:44.478Z,51.98
2023-07-05T11:43:24.065Z,52.31
2023-07-05T11:45:52.320Z,52.56
2023-07-05T11:48:40.968Z,53.13
2023-07-05T11:53:59.742Z,52.59
2023-07-05T11:56:31.442Z,52.34
2023-07-05T11:59:00.701Z,51.24
2023-07-05T12:01:32.181Z,51.07
2023-07-05T12:04:08.457Z,52.02
2023-07-05T12:06:41.443Z,50.88
2023-07-05T12:09:15.311Z,51.40
2023-07-05T12:11:44.137Z,50.82
2023-07-05T12:14:14.567Z,50.54
2023-07-05T12:16:43.494Z,49.11
2023-07-05T12:19:19.456Z,49.92
2023-07-05T12:21:56.302Z,50.07
2023-07-05T12:24:24.419Z,49.82
2023-07-05T12:26:54.982Z,50.08
2023-07-05T12:29:26.169Z,50.97
2023-07-05T12:32:06.487Z,51.70
2023-07-05T12:34:36.034Z,50.83
2023-07-05T12:37:04.121Z,50.61
2023-07-05T12:39:32.157Z,50.96
2023-07-05T12:42:03.860Z,50.79
2023-07-05T12:44:34.521Z,51.66
2023-07-05T12:47:17.178Z,52.79
2023-07-05T12:49:46.988Z,53.07
2023-07-05T12:52:20.934Z,54.24
2023-07-05T12:54:49.287Z,54.37
2023-07-05T12:57:23.560Z,56.74
2023-07-05T13:00:05.083Z,57.96
2023-07-05T13:02:36.824Z,58.20
2023-07-05T13:05:07.531Z,60.01
2023-07-05T13:07:38.585Z,60.48
2023-07-05T13:10:09.599Z,60.43
2023-07-05T13:12:49.981Z,60.93
2023-07-05T13:15:18.917Z,60.09
2023-07-05T13:17:47.266Z,60.02
2023-07-05T13:20:21.040Z,60.61
2023-07-05T13:22:58.522Z,60.69
2023-07-05T13:25:32.853Z,60.15
2023-07-05T13:28:03.664Z,59.93
2023-07-05T13:30:31.961Z,60.18
2023-07-05T13:33:02.174Z,59.16
2023-07-05T13:35:33.811Z,59.02
2023-07-05T13:38:03.568Z,58.80
2023-07-05T13:40:32.782Z,57.93
2023-07-05T13:43:04.049Z,58.23
2023-07-05T13:45:35.287Z,58.05
2023-07-05T13:48:03.532Z,56.77
2023-07-05T13:50:35.293Z,56.80
2023-07-05T13:53:05.022Z,57.16
2023-07-05T13:55:35.161Z,57.52
2023-07-05T13:58:07.953Z,58.32
2023-07-05T14:00:37.359Z,58.68
2023-07-05T14:03:06.031Z,59.88
2023-07-05T14:05:35.686Z,60.15
2023-07-05T14:08:07.695Z,60.83
2023-07-05T14:10:37.656Z,61.56
2023-07-05T14:13:05.751Z,61.76
2023-07-05T14:15:37.982Z,61.45
2023-07-05T14:18:06.740Z,62.02
2023-07-05T14:20:38.471Z,62.08
2023-07-05T14:23:12.575Z,61.96
2023-07-05T14:25:44.663Z,61.85
2023-07-05T14:28:13.731Z,61.48
2023-07-05T14:30:42.869Z,61.96
2023-07-05T14:33:11.590Z,62.17
2023-07-05T14:35:40.983Z,62.15
2023-07-05T14:38:10.053Z,61.99
2023-07-05T14:40:40.237Z,62.34
2023-07-05T14:43:08.309Z,62.59
2023-07-05T14:45:38.486Z,62.47
2023-07-05T14:48:07.155Z,62.98
2023-07-05T14:50:36.299Z,62.92
2023-07-05T14:53:09.738Z,63.11
2023-07-05T14:55:38.889Z,62.17
2023-07-05T14:58:12.797Z,62.04
2023-07-05T15:00:42.996Z,61.77
2023-07-05T15:03:15.722Z,61.66
2023-07-05T15:05:43.776Z,61.44
2023-07-05T15:08:13.192Z,61.39
2023-07-05T15:10:41.426Z,61.57
2023-07-05T15:13:12.584Z,61.11
2023-07-05T15:15:43.449Z,60.19
2023-07-05T15:18:11.573Z,60.62
2023-07-05T15:20:39.972Z,60.32
2023-07-05T15:23:08.258Z,59.54
2023-07-05T15:25:37.746Z,59.38
2023-07-05T15:28:06.409Z,58.96
2023-07-05T15:30:34.940Z,58.63
2023-07-05T15:33:03.011Z,58.25
2023-07-05T15:35:31.147Z,57.75
2023-07-05T15:37:59.215Z,56.13
2023-07-05T15:40:27.272Z,56.10
2023-07-05T15:42:56.665Z,55.88
2023-07-05T15:45:26.673Z,55.13
2023-07-05T15:47:55.474Z,55.42
2023-07-05T15:50:28.553Z,54.66
2023-07-05T15:52:57.459Z,53.99
2023-07-05T15:55:28.097Z,53.91
2023-07-05T15:58:01.195Z,54.00
2023-07-05T16:00:30.093Z,54.09
2023-07-05T16:03:00.437Z,53.42
2023-07-05T16:05:32.214Z,54.25
2023-07-05T16:08:02.447Z,53.76
2023-07-05T16:10:31.505Z,53.60
2023-07-05T16:13:02.396Z,53.47
2023-07-05T16:15:32.419Z,52.19
2023-07-05T16:18:00.936Z,52.18
2023-07-05T16:20:29.132Z,52.56
2023-07-05T16:22:57.253Z,53.01
2023-07-05T16:25:25.923Z,52.75
2023-07-05T16:27:54.099Z,52.22
2023-07-05T16:30:23.638Z,52.11
2023-07-05T16:32:51.711Z,51.38
2023-07-05T16:35:19.792Z,49.89
2023-07-05T16:37:47.888Z,49.37
2023-07-05T16:40:17.728Z,49.24
2023-07-05T16:42:46.897Z,49.50
2023-07-05T16:45:15.032Z,49.79
2023-07-05T16:47:45.173Z,50.02
2023-07-05T16:50:16.427Z,49.97
2023-07-05T16:52:44.815Z,49.39
2023-07-05T16:55:12.898Z,49.29
2023-07-05T16:57:41.372Z,49.05
2023-07-05T17:00:10.675Z,49.33
2023-07-05T17:02:41.369Z,50.02
2023-07-05T17:05:11.245Z,50.41
2023-07-05T17:07:39.317Z,50.47
2023-07-05T17:10:08.647Z,50.44
2023-07-05T17:12:36.877Z,50.16
2023-07-05T17:15:05.683Z,50.36
2023-07-05T17:17:34.636Z,50.03
2023-07-05T17:20:03.884Z,50.90
2023-07-05T17:22:37.864Z,50.17
2023-07-05T17:25:07.310Z,49.95
2023-07-05T17:27:35.369Z,49.84
2023-07-05T17:30:03.603Z,49.93
2023-07-05T17:32:31.693Z,49.86
2023-07-05T17:35:00.040Z,48.90
2023-07-05T17:37:28.818Z,49.29
2023-07-05T17:39:58.399Z,48.53
2023-07-05T17:42:26.497Z,48.55
2023-07-05T17:44:59.775Z,48.60
2023-07-05T17:47:28.044Z,48.58
2023-07-05T17:49:56.292Z,48.11
2023-07-05T17:52:24.912Z,48.04
2023-07-05T17:54:53.279Z,47.33
2023-07-05T17:57:22.814Z,46.96
2023-07-05T17:59:50.860Z,46.97
2023-07-05T18:02:18.974Z,47.18
2023-07-05T18:04:47.097Z,47.64
2023-07-05T18:07:15.253Z,47.38
2023-07-05T18:09:43.692Z,48.05
2023-07-05T18:12:12.170Z,48.35
2023-07-05T18:14:42.292Z,48.41
2023-07-05T18:17:10.535Z,49.14
2023-07-05T18:19:38.868Z,48.66
2023-07-05T18:22:07.517Z,48.66
2023-07-05T18:24:35.572Z,47.89
2023-07-05T18:27:03.647Z,47.91
2023-07-05T18:29:31.691Z,48.34
2023-07-05T18:32:01.149Z,48.85
2023-07-05T18:34:29.201Z,49.08
2023-07-05T18:36:57.660Z,49.53
2023-07-05T18:39:26.124Z,50.21
2023-07-05T18:41:54.167Z,50.27
2023-07-05T18:44:22.692Z,50.59
2023-07-05T18:46:50.951Z,51.16
2023-07-05T18:49:20.897Z,50.12
2023-07-05T18:51:50.345Z,49.97
2023-07-05T18:54:18.596Z,49.57
2023-07-05T18:56:46.659Z,49.44
2023-07-05T18:59:15.331Z,49.67
2023-07-05T19:01:44.897Z,49.41
2023-07-05T19:04:13.130Z,49.50
2023-07-05T19:06:42.608Z,49.47
2023-07-05T19:09:11.438Z,49.18
2023-07-05T19:11:39.909Z,49.25
2023-07-05T19:14:09.849Z,49.24
2023-07-05T19:16:38.379Z,49.08
2023-07-05T19:19:07.888Z,48.90
2023-07-05T19:21:36.141Z,49.43
2023-07-05T19:24:06.290Z,49.62
2023-07-05T19:26:34.426Z,49.78
2023-07-05T19:29:03.000Z,49.75
2023-07-05T19:31:31.116Z,50.02
2023-07-05T19:33:59.204Z,49.97
2023-07-05T19:36:28.181Z,49.98
2023-07-05T19:38:57.179Z,49.98
2023-07-05T19:41:26.754Z,50.18
2023-07-05T19:43:54.801Z,50.74
2023-07-05T19:46:27.472Z,50.81
2023-07-05T19:48:58.289Z,50.69
2023-07-05T19:51:26.534Z,50.88
2023-07-05T19:53:54.728Z,50.99
2023-07-05T19:56:23.314Z,51.47
2023-07-05T19:58:52.871Z,50.92
2023-07-05T20:01:21.004Z,51.24
2023-07-05T20:03:49.155Z,51.67
2023-07-05T20:06:17.941Z,51.61
2023-07-05T20:08:47.240Z,51.95
2023-07-05T20:11:19.220Z,52.31
2023-07-05T20:13:47.628Z,51.94
2023-07-05T20:16:19.873Z,52.00
2023-07-05T20:18:48.580Z,52.03
2023-07-05T20:21:17.931Z,51.81
2023-07-05T20:23:47.360Z,51.75
2023-07-05T20:26:17.605Z,51.87
2023-07-05T20:28:47.186Z,52.10
2023-07-05T20:31:19.069Z,51.99
2023-07-05T20:33:47.152Z,52.28
2023-07-05T20:36:16.780Z,52.64
2023-07-05T20:38:45.952Z,52.31
2023-07-05T20:41:14.564Z,52.04
2023-07-05T20:43:42.781Z,52.20
2023-07-05T20:46:11.152Z,52.13
2023-07-05T20:48:41.241Z,52.12
2023-07-05T20:51:11.981Z,52.40
2023-07-05T20:53:40.108Z,52.26
2023-07-05T20:56:08.345Z,52.19
2023-07-05T20:58:36.658Z,52.20
2023-07-05T21:01:06.494Z,52.22
2023-07-05T21:03:34.718Z,52.55
2023-07-05T21:06:04.116Z,52.65
2023-07-05T21:08:34.066Z,52.78
2023-07-05T21:11:05.797Z,52.94
2023-07-05T21:13:35.038Z,52.97
2023-07-05T21:16:05.727Z,53.02
2023-07-05T21:18:34.366Z,53.04
2023-07-05T21:21:04.053Z,53.13
2023-07-05T21:23:33.829Z,53.01
2023-07-05T21:26:04.817Z,53.14
2023-07-05T21:28:32.965Z,53.14
2023-07-05T21:31:02.899Z,53.32
2023-07-05T21:33:33.277Z,53.15
2023-07-05T21:36:03.100Z,53.34
2023-07-05T21:38:31.438Z,53.75
2023-07-05T21:41:01.514Z,53.55
2023-07-05T21:43:30.696Z,53.23
2023-07-05T21:45:59.235Z,53.63
2023-07-05T21:48:30.026Z,53.56
2023-07-05T21:50:59.337Z,53.33
2023-07-05T21:53:29.466Z,53.09
2023-07-05T21:55:59.585Z,53.82
2023-07-05T21:58:30.373Z,53.77
2023-07-05T22:00:59.847Z,53.68
2023-07-05T22:03:28.659Z,53.84
2023-07-05T22:05:59.848Z,53.66
2023-07-05T22:08:29.557Z,53.62
2023-07-05T22:10:57.697Z,53.93
2023-07-05T22:13:26.590Z,53.90
2023-07-05T22:15:55.542Z,54.10
2023-07-05T22:18:23.935Z,53.79
2023-07-05T22:20:51.973Z,54.04
2023-07-05T22:23:20.098Z,53.87
2023-07-05T22:25:49.526Z,54.26
2023-07-05T22:28:17.715Z,54.02
2023-07-05T22:30:48.598Z,53.81
2023-07-05T22:33:17.506Z,54.36
2023-07-05T22:35:46.127Z,54.32
2023-07-05T22:38:14.485Z,54.39
2023-07-05T22:40:42.581Z,53.86
2023-07-05T22:43:12.219Z,54.06
2023-07-05T22:45:40.388Z,54.61
2023-07-05T22:48:08.502Z,54.22
2023-07-05T22:50:36.957Z,54.16
2023-07-05T22:53:05.530Z,54.39
2023-07-05T22:55:34.216Z,54.03
2023-07-05T22:58:02.711Z,54.15
2023-07-05T23:00:32.210Z,54.30
2023-07-05T23:03:00.414Z,54.83
2023-07-05T23:05:29.894Z,54.52
2023-07-05T23:08:00.148Z,54.91
2023-07-05T23:10:28.251Z,54.95
2023-07-05T23:12:56.346Z,55.34
2023-07-05T23:15:24.620Z,54.93
2023-07-05T23:17:54.220Z,55.07
2023-07-05T23:20:24.326Z,55.13
2023-07-05T23:22:52.872Z,55.13
2023-07-05T23:25:21.048Z,54.92
2023-07-05T23:27:51.234Z,55.01
2023-07-05T23:30:19.784Z,54.87
2023-07-05T23:32:49.924Z,54.99
2023-07-05T23:35:19.689Z,54.84
2023-07-05T23:37:47.897Z,54.72
2023-07-05T23:40:16.049Z,55.00
2023-07-05T23:42:46.446Z,55.04
2023-07-05T23:45:15.105Z,54.72
2023-07-05T23:47:43.418Z,54.46
2023-07-05T23:50:12.800Z,54.77
2023-07-05T23:52:42.495Z,54.90
2023-07-05T23:55:11.457Z,54.37
2023-07-05T23:57:39.696Z,54.18
